ADDS METAR Data INFO
IDs: Format: Raw Decoded Include TAF

Data at: 1941 UTC 18 Feb 2018

KDRT 181853Z AUTO 12008KT 10SM OVC009 18/16 A2999 RMK AO2 SLP144 T01780156